Time;durP1;ratioP1;P1;durP2;ratioP2;P2;SDS_P1;SDS_P2;PMS_P1;PMS_P2;Temp;Humidity;BMP_temperature;BMP_pressure;BME280_temperature;BME280_humidity;BME280_pressure;Samples;Min_cycle;Max_cycle;Signal;HPM_P1;HPM_P2
2021/08/12 00:01:01;;;;;;;16.77;15.10;;;16.70;99.90;;;;;;5032795;28;20167;-66
2021/08/12 00:03:26;;;;;;;16.67;14.90;;;16.70;99.90;;;;;;5032629;28;20183;-65
2021/08/12 00:05:52;;;;;;;16.87;15.13;;;16.70;99.90;;;;;;5032845;28;20546;-65
2021/08/12 00:08:18;;;;;;;16.53;14.73;;;16.80;99.90;;;;;;5032537;28;20175;-66
2021/08/12 00:10:43;;;;;;;18.07;15.70;;;16.80;99.90;;;;;;5032549;28;20176;-65
2021/08/12 00:13:09;;;;;;;16.73;15.03;;;16.80;99.90;;;;;;5032552;28;20183;-65
2021/08/12 00:15:35;;;;;;;17.93;16.03;;;16.90;99.90;;;;;;5032705;28;20211;-65
2021/08/12 00:18:00;;;;;;;17.67;15.87;;;16.80;99.90;;;;;;5032385;28;20204;-66
2021/08/12 00:20:26;;;;;;;17.10;15.47;;;16.90;99.90;;;;;;5032195;28;20167;-66
2021/08/12 00:22:51;;;;;;;18.03;16.13;;;16.90;99.90;;;;;;5032235;28;20539;-65
2021/08/12 00:25:17;;;;;;;16.00;14.40;;;16.80;99.90;;;;;;5032370;28;20176;-65
2021/08/12 00:27:43;;;;;;;16.57;14.77;;;16.80;99.90;;;;;;5031544;28;20684;-66
2021/08/12 00:30:09;;;;;;;18.43;15.07;;;16.70;99.90;;;;;;5031419;28;20172;-66
2021/08/12 00:32:34;;;;;;;16.80;15.10;;;16.70;99.90;;;;;;5031949;28;20191;-65
2021/08/12 00:35:00;;;;;;;15.60;13.97;;;16.70;99.90;;;;;;5031978;28;20435;-65
2021/08/12 00:37:26;;;;;;;16.07;14.40;;;16.60;99.90;;;;;;5031567;28;20188;-65
2021/08/12 00:39:51;;;;;;;15.87;14.03;;;16.40;99.90;;;;;;5031549;28;20167;-66
2021/08/12 00:42:17;;;;;;;16.90;15.17;;;16.40;99.90;;;;;;5031232;28;20167;-66
2021/08/12 00:44:42;;;;;;;20.00;16.20;;;16.30;99.90;;;;;;5031904;28;20175;-66
2021/08/12 00:47:08;;;;;;;17.57;15.67;;;16.30;99.90;;;;;;5031959;28;20203;-66
2021/08/12 00:49:37;;;;;;;17.07;15.27;;;16.30;99.90;;;;;;5031752;28;20195;-66
2021/08/12 00:52:05;;;;;;;18.10;16.00;;;16.20;99.90;;;;;;5032095;28;20168;-66
2021/08/12 00:54:31;;;;;;;19.60;16.83;;;16.20;99.90;;;;;;5031846;28;20760;-66
2021/08/12 00:56:57;;;;;;;20.23;17.40;;;16.30;99.90;;;;;;5031442;28;20293;-66
2021/08/12 00:59:26;;;;;;;19.13;17.20;;;16.30;99.90;;;;;;5031641;28;20175;-66
2021/08/12 01:01:51;;;;;;;19.83;17.93;;;16.40;99.90;;;;;;5031933;28;20598;-66
2021/08/12 01:04:17;;;;;;;19.73;16.50;;;16.40;99.90;;;;;;5031591;28;20171;-66
2021/08/12 01:07:01;;;;;;;19.30;17.30;;;16.30;99.90;;;;;;5031626;28;20214;-66
2021/08/12 01:09:56;;;;;;;19.37;17.40;;;16.20;99.90;;;;;;5031516;28;20220;-66
2021/08/12 01:12:46;;;;;;;20.77;17.00;;;16.10;99.90;;;;;;5031514;28;20621;-66
2021/08/12 01:15:20;;;;;;;20.70;16.67;;;16.10;99.90;;;;;;5030167;28;20738;-67
2021/08/12 01:17:56;;;;;;;18.63;16.27;;;15.90;99.90;;;;;;5031483;28;20203;-66
2021/08/12 01:20:58;;;;;;;23.23;17.33;;;15.90;99.90;;;;;;5031339;28;20685;-66
2021/08/12 01:23:25;;;;;;;21.63;18.33;;;15.80;99.90;;;;;;5021328;28;20187;-66
2021/08/12 01:25:54;;;;;;;25.20;19.97;;;15.80;99.90;;;;;;5031602;28;20183;-66
2021/08/12 01:28:25;;;;;;;25.13;19.87;;;15.80;99.90;;;;;;5031737;28;20175;-66
2021/08/12 01:31:14;;;;;;;24.87;20.30;;;15.80;99.90;;;;;;5031060;28;20190;-66
2021/08/12 01:34:08;;;;;;;23.33;19.43;;;15.90;99.90;;;;;;5031738;28;20171;-66
2021/08/12 01:36:35;;;;;;;23.37;20.13;;;16.00;99.90;;;;;;5031285;28;20302;-66
2021/08/12 01:39:06;;;;;;;25.53;19.90;;;15.90;99.90;;;;;;5031564;28;20218;-66
2021/08/12 01:41:32;;;;;;;25.63;19.57;;;16.00;99.90;;;;;;5031183;28;20179;-66
2021/08/12 01:44:00;;;;;;;27.10;20.83;;;15.90;99.90;;;;;;5031420;28;20167;-66
2021/08/12 01:46:27;;;;;;;23.53;18.63;;;15.80;99.90;;;;;;5030089;28;20202;-66
2021/08/12 01:48:54;;;;;;;20.53;18.33;;;15.80;99.90;;;;;;5031063;28;20867;-66
2021/08/12 01:51:24;;;;;;;21.77;18.40;;;15.80;99.90;;;;;;5034855;28;20172;-66
2021/08/12 01:53:51;;;;;;;23.03;19.17;;;15.70;99.90;;;;;;5034812;28;20526;-66
2021/08/12 01:56:19;;;;;;;19.07;17.07;;;15.80;99.90;;;;;;5035103;28;20207;-66
2021/08/12 01:58:46;;;;;;;20.17;18.10;;;15.70;99.90;;;;;;5035099;28;20171;-66
2021/08/12 02:01:12;;;;;;;23.90;18.10;;;15.80;99.90;;;;;;5035040;28;20241;-66
2021/08/12 02:03:39;;;;;;;20.10;18.00;;;15.90;99.90;;;;;;5034954;28;20196;-66
2021/08/12 02:06:06;;;;;;;19.10;17.03;;;15.90;99.90;;;;;;5035260;28;20696;-66
2021/08/12 02:08:31;;;;;;;24.03;17.27;;;15.90;99.90;;;;;;5034866;28;20278;-66
2021/08/12 02:10:57;;;;;;;21.63;17.07;;;15.80;99.90;;;;;;5034734;28;20184;-66
2021/08/12 02:13:24;;;;;;;20.40;17.83;;;15.80;99.90;;;;;;5034740;28;20664;-66
2021/08/12 02:15:51;;;;;;;21.73;16.67;;;15.80;99.90;;;;;;5034765;28;20246;-66
2021/08/12 02:18:16;;;;;;;23.37;16.87;;;15.80;99.90;;;;;;5034669;28;20206;-66
2021/08/12 02:20:50;;;;;;;19.53;17.53;;;15.90;99.90;;;;;;5034468;28;20164;-66
2021/08/12 02:23:25;;;;;;;19.13;17.17;;;15.90;99.90;;;;;;5034768;28;20570;-66
2021/08/12 02:26:08;;;;;;;19.07;15.30;;;16.00;99.90;;;;;;5034789;28;20174;-66
2021/08/12 02:28:35;;;;;;;22.50;16.67;;;16.10;99.90;;;;;;5034834;28;20242;-66
2021/08/12 02:31:03;;;;;;;19.33;16.80;;;16.20;99.90;;;;;;5033928;28;20179;-66
2021/08/12 02:33:34;;;;;;;20.23;15.40;;;16.20;99.90;;;;;;5034691;28;20583;-66
2021/08/12 02:36:01;;;;;;;20.53;16.17;;;16.20;99.90;;;;;;5034377;28;20677;-66
2021/08/12 02:38:29;;;;;;;17.53;15.63;;;16.20;99.90;;;;;;5034644;28;20582;-66
2021/08/12 02:40:57;;;;;;;18.77;15.33;;;16.30;99.90;;;;;;5033884;28;20266;-67
2021/08/12 02:43:24;;;;;;;17.73;15.93;;;16.30;99.90;;;;;;5034568;28;20182;-66
2021/08/12 02:45:55;;;;;;;17.80;14.33;;;16.30;99.90;;;;;;5034406;28;20186;-66
2021/08/12 02:48:24;;;;;;;19.73;14.13;;;16.30;99.90;;;;;;5033962;28;20168;-66
2021/08/12 02:50:51;;;;;;;17.30;14.57;;;16.40;99.90;;;;;;5033829;28;20183;-66
2021/08/12 02:53:17;;;;;;;18.27;16.50;;;16.40;99.90;;;;;;5033280;28;20597;-66
2021/08/12 02:55:45;;;;;;;16.73;13.67;;;16.40;99.90;;;;;;5032946;28;20207;-66
2021/08/12 02:58:11;;;;;;;14.40;13.03;;;16.40;99.90;;;;;;5033981;28;20199;-66
2021/08/12 03:00:37;;;;;;;20.10;14.40;;;16.40;99.90;;;;;;5032509;28;20176;-66
2021/08/12 03:03:04;;;;;;;16.07;14.20;;;16.30;99.90;;;;;;5033982;28;20172;-66
2021/08/12 03:05:32;;;;;;;16.03;14.43;;;16.20;99.90;;;;;;5034006;28;20233;-66
2021/08/12 03:07:58;;;;;;;16.33;13.97;;;16.20;99.90;;;;;;5033833;28;20571;-66
2021/08/12 03:10:25;;;;;;;18.33;15.57;;;16.10;99.90;;;;;;5033473;28;20175;-66
2021/08/12 03:12:52;;;;;;;17.67;15.30;;;16.10;99.90;;;;;;5033736;28;20183;-66
2021/08/12 03:15:18;;;;;;;17.03;15.33;;;16.00;99.90;;;;;;5033557;28;20597;-66
2021/08/12 03:17:44;;;;;;;19.37;15.07;;;16.10;99.90;;;;;;5033602;28;20213;-66
2021/08/12 03:20:11;;;;;;;17.17;14.40;;;16.10;99.90;;;;;;5033086;28;20531;-66
2021/08/12 03:22:37;;;;;;;17.80;15.90;;;16.10;99.90;;;;;;5033611;28;20194;-66
2021/08/12 03:25:03;;;;;;;19.90;16.40;;;16.10;99.90;;;;;;5033794;28;20201;-66
2021/08/12 03:27:28;;;;;;;20.07;16.47;;;16.10;99.90;;;;;;5033454;28;20210;-66
2021/08/12 03:29:54;;;;;;;21.23;17.13;;;16.10;99.90;;;;;;5033445;28;20258;-66
2021/08/12 03:32:21;;;;;;;18.43;16.27;;;16.10;99.90;;;;;;5032976;28;20187;-66
2021/08/12 03:34:47;;;;;;;20.73;17.40;;;16.10;99.90;;;;;;5033446;28;20211;-67
2021/08/12 03:37:14;;;;;;;20.37;16.83;;;16.10;99.90;;;;;;5033275;28;20242;-66
2021/08/12 03:39:40;;;;;;;19.97;17.57;;;16.10;99.90;;;;;;5033247;28;20176;-67
2021/08/12 03:42:05;;;;;;;20.73;16.17;;;16.20;99.90;;;;;;5033322;28;20313;-66
2021/08/12 03:44:31;;;;;;;19.73;17.63;;;16.30;99.90;;;;;;5033416;28;20629;-66
2021/08/12 03:46:57;;;;;;;19.23;17.17;;;16.30;99.90;;;;;;5032591;28;20222;-66
2021/08/12 03:49:22;;;;;;;22.53;16.97;;;16.30;99.90;;;;;;5032894;28;20555;-67
2021/08/12 03:51:48;;;;;;;19.07;16.33;;;16.30;99.90;;;;;;5031937;28;20201;-67
2021/08/12 03:54:14;;;;;;;19.73;16.80;;;16.30;99.90;;;;;;5032238;28;20176;-66
2021/08/12 03:56:39;;;;;;;19.80;15.60;;;16.30;99.90;;;;;;5048169;22;20230;-68
2021/08/12 03:59:05;;;;;;;20.27;15.57;;;16.40;99.90;;;;;;5033506;28;20263;-65
2021/08/12 04:01:32;;;;;;;18.13;15.80;;;16.40;99.90;;;;;;5032801;28;20255;-65
2021/08/12 04:03:58;;;;;;;19.87;17.37;;;16.40;99.90;;;;;;5032795;28;20176;-65
2021/08/12 04:06:24;;;;;;;17.40;15.57;;;16.50;99.90;;;;;;5032702;28;20668;-65
2021/08/12 04:08:50;;;;;;;20.43;15.43;;;16.40;99.90;;;;;;5032445;28;20175;-64
2021/08/12 04:11:15;;;;;;;19.37;16.37;;;16.40;99.90;;;;;;5030857;28;20199;-65
2021/08/12 04:13:41;;;;;;;18.23;16.53;;;16.40;99.90;;;;;;5031670;28;20183;-65
2021/08/12 04:16:07;;;;;;;18.57;16.67;;;16.30;99.90;;;;;;5032172;28;20199;-66
2021/08/12 04:18:32;;;;;;;18.67;15.73;;;16.20;99.90;;;;;;5032539;28;20190;-66
2021/08/12 04:20:58;;;;;;;17.40;15.77;;;16.10;99.90;;;;;;5031895;28;20592;-66
2021/08/12 04:23:24;;;;;;;18.40;16.50;;;16.10;99.90;;;;;;5032709;28;20187;-65
2021/08/12 04:25:53;;;;;;;16.70;15.07;;;16.00;99.90;;;;;;5032200;28;20207;-64
2021/08/12 04:28:19;;;;;;;16.77;14.90;;;16.00;99.90;;;;;;5032499;28;20204;-65
2021/08/12 04:30:45;;;;;;;16.83;15.00;;;16.00;99.90;;;;;;5031919;28;20176;-66
2021/08/12 04:33:10;;;;;;;16.90;14.27;;;16.00;99.90;;;;;;5032448;28;20189;-66
2021/08/12 04:35:36;;;;;;;17.90;15.57;;;16.00;99.90;;;;;;5032075;28;20568;-65
2021/08/12 04:38:02;;;;;;;17.20;15.40;;;16.10;99.90;;;;;;5032211;28;20697;-65
2021/08/12 04:40:27;;;;;;;17.53;15.70;;;16.10;99.90;;;;;;5031720;28;20632;-65
2021/08/12 04:42:53;;;;;;;18.87;17.07;;;16.10;99.90;;;;;;5032237;28;20257;-65
2021/08/12 04:45:20;;;;;;;17.73;15.97;;;16.00;99.90;;;;;;5031805;28;20171;-66
2021/08/12 04:47:46;;;;;;;15.77;14.07;;;15.90;99.90;;;;;;5032043;28;20194;-65
2021/08/12 04:50:12;;;;;;;18.00;15.37;;;16.00;99.90;;;;;;5031442;28;20175;-65
2021/08/12 04:52:41;;;;;;;17.60;15.63;;;16.00;99.90;;;;;;5032109;28;20252;-65
2021/08/12 04:55:08;;;;;;;18.93;15.57;;;16.00;99.90;;;;;;5031650;28;20259;-64
2021/08/12 04:57:35;;;;;;;16.57;14.40;;;16.00;99.90;;;;;;5032052;28;20231;-66
2021/08/12 05:00:01;;;;;;;14.80;13.30;;;16.00;99.90;;;;;;5031383;28;20702;-66
2021/08/12 05:02:27;;;;;;;19.77;16.13;;;16.10;99.90;;;;;;5031731;28;20191;-65
2021/08/12 05:04:52;;;;;;;18.93;15.93;;;16.00;99.90;;;;;;5031458;28;20214;-66
2021/08/12 05:07:18;;;;;;;18.47;14.53;;;16.10;99.90;;;;;;5031734;28;20195;-66
2021/08/12 05:09:44;;;;;;;17.43;15.60;;;16.10;99.90;;;;;;5031251;28;20190;-66
2021/08/12 05:12:09;;;;;;;18.10;16.30;;;16.20;99.90;;;;;;5031711;28;20180;-66
2021/08/12 05:14:35;;;;;;;18.03;16.10;;;16.20;99.90;;;;;;5031596;28;20232;-65
2021/08/12 05:17:01;;;;;;;18.17;15.40;;;16.30;99.90;;;;;;5031198;28;20268;-65
2021/08/12 05:19:26;;;;;;;21.20;17.40;;;16.40;99.90;;;;;;5031348;28;20255;-65
2021/08/12 05:21:52;;;;;;;20.70;17.23;;;16.30;99.90;;;;;;5031408;28;20179;-65
2021/08/12 05:24:18;;;;;;;17.80;16.00;;;16.40;99.90;;;;;;5031130;28;20187;-66
2021/08/12 05:26:44;;;;;;;18.07;15.73;;;16.50;99.90;;;;;;5030710;28;20228;-66
2021/08/12 05:29:09;;;;;;;19.07;16.30;;;16.60;99.90;;;;;;5031057;28;20184;-65
2021/08/12 05:31:35;;;;;;;19.17;16.27;;;16.70;99.90;;;;;;5031236;28;20171;-65
2021/08/12 05:34:01;;;;;;;23.47;16.73;;;16.80;99.90;;;;;;5031341;28;20228;-66
2021/08/12 05:36:26;;;;;;;19.93;16.03;;;16.90;99.90;;;;;;5031350;28;20211;-66
2021/08/12 05:38:53;;;;;;;20.73;18.13;;;17.00;99.90;;;;;;5031127;28;20520;-66
2021/08/12 05:41:19;;;;;;;21.07;16.90;;;17.10;99.90;;;;;;5031138;28;20179;-66
2021/08/12 05:43:44;;;;;;;21.67;18.13;;;17.20;99.90;;;;;;5031394;28;20363;-66
2021/08/12 05:46:10;;;;;;;20.60;17.23;;;17.30;99.90;;;;;;5031245;28;20651;-64
2021/08/12 05:48:35;;;;;;;20.87;18.87;;;17.40;99.90;;;;;;5031179;28;20187;-65
2021/08/12 05:51:01;;;;;;;18.77;16.80;;;17.60;99.90;;;;;;5031047;28;20245;-66
2021/08/12 05:53:30;;;;;;;19.67;16.57;;;17.90;99.90;;;;;;5031223;28;20195;-66
2021/08/12 05:55:56;;;;;;;17.13;15.33;;;18.10;99.90;;;;;;5031210;28;20695;-66
2021/08/12 05:58:21;;;;;;;16.57;14.77;;;18.20;99.90;;;;;;5028818;28;20215;-66
2021/08/12 06:00:47;;;;;;;16.27;14.57;;;18.20;99.90;;;;;;5030927;28;20176;-66
2021/08/12 06:03:13;;;;;;;15.17;13.77;;;18.30;99.90;;;;;;5030420;28;20191;-66
2021/08/12 06:05:40;;;;;;;15.13;13.73;;;18.50;99.90;;;;;;5029716;28;20198;-65
2021/08/12 06:08:08;;;;;;;14.03;12.73;;;18.60;99.90;;;;;;5030765;28;20203;-65
2021/08/12 06:10:35;;;;;;;13.60;12.23;;;18.70;99.90;;;;;;5030689;28;20183;-66
2021/08/12 06:13:01;;;;;;;14.10;12.80;;;18.90;99.90;;;;;;5030654;28;20187;-65
2021/08/12 06:15:28;;;;;;;15.43;13.93;;;19.00;99.90;;;;;;5029744;28;20260;-65
2021/08/12 06:17:54;;;;;;;13.17;11.83;;;19.00;99.90;;;;;;5030981;28;20200;-65
2021/08/12 06:20:20;;;;;;;14.10;12.80;;;19.10;99.90;;;;;;5029375;28;20226;-65
2021/08/12 06:22:47;;;;;;;12.90;11.67;;;19.30;99.90;;;;;;5030800;28;20168;-66
2021/08/12 06:25:13;;;;;;;15.97;14.33;;;19.60;99.90;;;;;;5030743;28;20622;-65
2021/08/12 06:27:39;;;;;;;14.50;13.17;;;20.10;99.90;;;;;;5030522;28;20192;-66
2021/08/12 06:30:07;;;;;;;12.73;11.47;;;20.60;99.90;;;;;;5030690;28;20171;-65
2021/08/12 06:32:33;;;;;;;13.90;12.60;;;20.70;99.90;;;;;;5030669;28;20604;-66
2021/08/12 06:34:59;;;;;;;13.83;12.43;;;20.90;99.90;;;;;;5030742;28;20172;-66
2021/08/12 06:37:25;;;;;;;13.57;12.07;;;21.10;99.90;;;;;;5032729;28;20239;-66
2021/08/12 06:39:51;;;;;;;13.32;11.88;;;21.40;99.90;;;;;;5033922;28;20202;-66
2021/08/12 06:42:16;;;;;;;11.47;10.47;;;21.50;99.90;;;;;;5034194;28;20258;-65
2021/08/12 06:44:42;;;;;;;12.77;11.48;;;21.70;99.90;;;;;;5032966;28;20611;-66
2021/08/12 06:47:08;;;;;;;12.45;11.20;;;21.80;99.90;;;;;;5034085;28;20199;-65
2021/08/12 06:49:34;;;;;;;12.03;10.87;;;21.90;99.90;;;;;;5033705;28;20549;-66
2021/08/12 06:51:59;;;;;;;13.03;11.83;;;22.00;99.90;;;;;;5034307;28;20420;-65
2021/08/12 06:54:25;;;;;;;15.15;11.02;;;22.10;99.90;;;;;;5033790;28;20182;-66
2021/08/12 06:56:51;;;;;;;13.13;11.77;;;22.10;99.90;;;;;;5032398;28;20567;-65
2021/08/12 06:59:16;;;;;;;12.30;11.00;;;22.40;99.90;;;;;;5033432;28;20685;-65
2021/08/12 07:01:42;;;;;;;12.57;11.45;;;22.50;99.90;;;;;;5033632;28;20219;-65
2021/08/12 07:04:07;;;;;;;12.83;11.40;;;22.50;99.90;;;;;;5033914;28;20175;-66
2021/08/12 07:06:36;;;;;;;12.43;11.13;;;22.40;99.90;;;;;;5033983;28;20206;-66
2021/08/12 07:09:01;;;;;;;10.85;9.88;;;22.60;99.90;;;;;;5033549;28;20183;-66
2021/08/12 07:11:27;;;;;;;11.75;10.55;;;22.60;99.90;;;;;;5033360;28;20561;-66
2021/08/12 07:13:52;;;;;;;13.57;10.45;;;22.80;99.90;;;;;;5033773;28;20221;-66
2021/08/12 07:16:18;;;;;;;11.98;10.30;;;23.10;99.90;;;;;;5033449;28;20564;-66
2021/08/12 07:18:45;;;;;;;12.02;10.75;;;23.30;99.90;;;;;;5033535;28;20688;-65
2021/08/12 07:21:19;;;;;;;13.70;11.15;;;23.40;99.90;;;;;;5038935;28;20171;-65
2021/08/12 07:23:46;;;;;;;13.85;11.18;;;23.60;99.90;;;;;;5034856;28;20221;-65
2021/08/12 07:26:13;;;;;;;11.75;10.63;;;23.80;99.90;;;;;;5033346;28;20176;-65
2021/08/12 07:28:44;;;;;;;14.27;10.63;;;23.60;99.90;;;;;;5033211;28;20211;-65
2021/08/12 07:31:12;;;;;;;12.18;11.07;;;23.50;99.90;;;;;;5032762;28;20607;-66
2021/08/12 07:33:38;;;;;;;10.38;9.38;;;23.50;99.90;;;;;;5032861;28;20180;-65
2021/08/12 07:36:05;;;;;;;11.45;10.30;;;23.70;99.90;;;;;;5032701;28;20198;-66
2021/08/12 07:38:31;;;;;;;12.25;11.00;;;23.80;99.90;;;;;;5031773;28;20199;-65
2021/08/12 07:40:58;;;;;;;11.98;10.85;;;23.80;99.90;;;;;;5032681;28;20171;-66
2021/08/12 07:43:25;;;;;;;13.52;10.57;;;23.80;99.90;;;;;;5033067;28;20604;-66
2021/08/12 07:45:50;;;;;;;12.57;11.27;;;23.90;99.90;;;;;;5032982;28;20259;-66
2021/08/12 07:48:16;;;;;;;11.13;10.00;;;24.20;99.90;;;;;;5032959;28;20278;-65
2021/08/12 07:50:42;;;;;;;10.60;9.50;;;24.50;99.90;;;;;;5032515;28;20184;-66
2021/08/12 07:53:08;;;;;;;12.15;10.00;;;24.90;99.90;;;;;;5032927;28;20589;-66
2021/08/12 07:55:34;;;;;;;11.80;10.65;;;25.10;99.90;;;;;;5031792;28;20234;-67
2021/08/12 07:58:00;;;;;;;11.50;10.50;;;25.10;99.90;;;;;;5032282;28;20273;-66
2021/08/12 08:00:25;;;;;;;11.30;10.07;;;24.90;99.90;;;;;;5032430;28;20669;-66
2021/08/12 08:02:51;;;;;;;13.23;10.07;;;24.80;99.90;;;;;;5033193;28;20180;-66
2021/08/12 08:05:19;;;;;;;12.55;10.98;;;24.70;99.90;;;;;;5032427;28;20585;-67
2021/08/12 08:07:45;;;;;;;13.73;10.93;;;24.80;99.90;;;;;;5032412;28;20202;-65
2021/08/12 08:10:12;;;;;;;13.50;10.60;;;24.70;99.90;;;;;;5032314;28;20199;-66
2021/08/12 08:12:38;;;;;;;13.20;11.80;;;24.70;99.90;;;;;;5043074;28;20663;-66
2021/08/12 08:15:04;;;;;;;12.82;11.15;;;24.60;99.90;;;;;;5048957;28;20177;-66
2021/08/12 08:17:30;;;;;;;14.40;11.00;;;24.80;99.90;;;;;;5052361;28;20212;-66
2021/08/12 08:19:57;;;;;;;14.50;11.00;;;25.20;99.90;;;;;;5052329;28;20178;-66
2021/08/12 08:22:23;;;;;;;12.85;11.52;;;25.60;99.90;;;;;;5033393;28;20262;-66
2021/08/12 08:24:49;;;;;;;12.88;10.90;;;25.70;99.90;;;;;;5032525;28;20164;-65
2021/08/12 08:27:15;;;;;;;13.00;11.10;;;26.30;99.90;;;;;;5031712;28;20203;-66
2021/08/12 08:29:40;;;;;;;12.10;10.77;;;27.30;99.90;;;;;;5031127;28;20556;-66
2021/08/12 08:32:06;;;;;;;13.90;10.63;;;28.00;99.90;;;;;;5032061;28;20175;-66
2021/08/12 08:34:32;;;;;;;15.57;10.75;;;28.80;99.90;;;;;;5032175;28;20179;-66
2021/08/12 08:36:57;;;;;;;15.45;10.95;;;29.40;99.90;;;;;;5032174;28;20576;-66
2021/08/12 08:39:23;;;;;;;15.82;11.65;;;29.70;99.90;;;;;;5031623;28;20214;-66
2021/08/12 08:41:49;;;;;;;20.20;11.15;;;29.90;99.90;;;;;;5032303;28;20279;-66
2021/08/12 08:44:18;;;;;;;12.48;10.35;;;30.00;99.90;;;;;;5031143;28;20163;-66
2021/08/12 08:46:45;;;;;;;13.70;10.75;;;30.50;99.90;;;;;;5031835;28;20206;-66
2021/08/12 08:49:12;;;;;;;16.70;11.32;;;30.60;99.90;;;;;;5030596;28;20262;-66
2021/08/12 08:51:38;;;;;;;15.95;11.43;;;30.60;99.90;;;;;;5030522;28;20183;-67
2021/08/12 08:54:04;;;;;;;15.20;11.95;;;30.40;99.90;;;;;;5031979;28;20535;-66
2021/08/12 08:56:31;;;;;;;15.57;11.63;;;30.40;99.90;;;;;;5030110;28;20199;-66
2021/08/12 08:58:56;;;;;;;16.33;12.50;;;30.60;99.90;;;;;;5030359;28;20579;-66
2021/08/12 09:01:22;;;;;;;15.50;11.38;;;30.70;99.90;;;;;;5030075;28;20172;-66
2021/08/12 09:03:49;;;;;;;17.17;11.20;;;30.50;99.90;;;;;;5031940;28;20171;-66
2021/08/12 09:06:15;;;;;;;14.75;10.73;;;30.50;99.90;;;;;;5031558;28;20171;-66
2021/08/12 09:08:40;;;;;;;14.80;10.80;;;30.50;99.90;;;;;;5031827;28;20250;-66
2021/08/12 09:11:06;;;;;;;11.77;9.90;;;30.50;99.90;;;;;;5031176;28;20190;-65
2021/08/12 09:13:32;;;;;;;16.45;10.40;;;30.70;99.90;;;;;;5031557;28;20214;-66
2021/08/12 09:15:58;;;;;;;16.58;10.73;;;30.90;99.90;;;;;;5031686;28;20223;-66
2021/08/12 09:18:25;;;;;;;18.27;10.98;;;31.10;99.90;;;;;;5031295;28;20195;-66
2021/08/12 09:20:53;;;;;;;14.77;11.63;;;31.10;99.90;;;;;;5031453;28;20168;-66
2021/08/12 09:23:25;;;;;;;12.27;11.05;;;31.10;99.90;;;;;;5031071;28;20715;-66
2021/08/12 09:25:51;;;;;;;14.75;11.68;;;31.10;99.90;;;;;;5031693;28;20190;-65
2021/08/12 09:28:21;;;;;;;13.27;11.77;;;30.90;99.90;;;;;;5031091;28;20191;-65
2021/08/12 09:30:59;;;;;;;12.52;10.98;;;30.90;99.90;;;;;;5031456;28;20250;-65
2021/08/12 09:33:28;;;;;;;13.05;10.75;;;30.70;99.90;;;;;;5029917;28;20178;-65
2021/08/12 09:35:54;;;;;;;13.25;9.75;;;30.90;99.90;;;;;;5031526;28;20695;-65
2021/08/12 09:38:21;;;;;;;11.20;9.68;;;30.90;99.90;;;;;;5031208;28;20199;-65
2021/08/12 09:40:58;;;;;;;11.77;9.50;;;30.90;99.90;;;;;;5031133;28;20172;-65
2021/08/12 09:43:30;;;;;;;11.55;9.48;;;30.70;99.90;;;;;;5031016;28;20641;-65
2021/08/12 09:45:57;;;;;;;10.38;9.35;;;30.60;99.90;;;;;;5030251;28;20596;-65
2021/08/12 09:48:23;;;;;;;13.18;10.05;;;30.50;99.90;;;;;;5031165;28;20199;-65
2021/08/12 09:51:06;;;;;;;9.98;8.93;;;30.30;99.90;;;;;;5031402;28;20227;-65
2021/08/12 09:53:33;;;;;;;10.52;9.52;;;30.10;99.90;;;;;;5031482;28;20672;-65
2021/08/12 09:56:08;;;;;;;10.45;9.43;;;29.80;99.90;;;;;;5031629;28;20286;-65
2021/08/12 09:58:35;;;;;;;9.45;8.52;;;29.70;99.90;;;;;;5030966;28;20571;-64
2021/08/12 10:01:19;;;;;;;9.25;8.27;;;29.70;99.90;;;;;;5031174;28;20183;-65
2021/08/12 10:03:45;;;;;;;9.20;8.27;;;29.90;99.90;;;;;;5060560;22;20234;-66
2021/08/12 10:06:20;;;;;;;9.32;8.43;;;30.10;99.90;;;;;;5011192;28;20188;-64
2021/08/12 10:08:46;;;;;;;9.60;8.63;;;29.50;99.90;;;;;;5029806;28;20190;-67
2021/08/12 10:11:19;;;;;;;9.10;8.20;;;29.30;99.90;;;;;;5013744;28;20264;-65
2021/08/12 10:13:47;;;;;;;9.25;7.82;;;29.30;99.90;;;;;;5013387;28;20180;-65
2021/08/12 10:16:15;;;;;;;9.02;7.13;;;29.70;99.90;;;;;;5013909;28;20258;-66
2021/08/12 10:18:43;;;;;;;9.63;7.60;;;30.30;99.90;;;;;;5014915;28;20172;-65
2021/08/12 10:21:13;;;;;;;8.30;7.53;;;30.80;99.90;;;;;;5021933;28;20172;-65
2021/08/12 10:23:40;;;;;;;8.50;7.57;;;31.60;99.90;;;;;;5032985;28;20167;-67
2021/08/12 10:26:07;;;;;;;7.20;6.60;;;32.30;99.90;;;;;;5026842;28;20260;-65
2021/08/12 10:28:35;;;;;;;7.25;6.53;;;32.40;99.90;;;;;;5034689;28;20168;-66
2021/08/12 10:31:07;;;;;;;7.18;6.57;;;32.40;99.90;;;;;;5019993;28;20176;-65
2021/08/12 10:33:34;;;;;;;9.30;6.30;;;32.40;99.90;;;;;;5014817;28;20168;-66
2021/08/12 10:36:00;;;;;;;8.65;5.97;;;32.40;99.90;;;;;;5014649;28;20200;-66
2021/08/12 10:38:26;;;;;;;7.78;6.72;;;32.00;99.90;;;;;;5013495;28;20661;-66
2021/08/12 10:40:52;;;;;;;5.80;5.30;;;31.70;99.90;;;;;;5018297;28;20748;-65
2021/08/12 10:43:21;;;;;;;6.13;5.60;;;31.70;99.90;;;;;;5034322;28;20167;-66
2021/08/12 10:46:02;;;;;;;6.78;6.13;;;31.90;99.90;;;;;;5024856;28;20283;-65
2021/08/12 10:48:28;;;;;;;6.20;5.70;;;31.40;99.90;;;;;;5014667;28;20229;-65
2021/08/12 10:51:12;;;;;;;6.90;5.70;;;31.10;99.90;;;;;;5014257;28;20188;-66
2021/08/12 10:53:40;;;;;;;6.72;6.15;;;30.70;99.90;;;;;;5013968;28;20206;-66
2021/08/12 10:56:10;;;;;;;6.00;5.50;;;30.40;99.90;;;;;;5014294;28;20218;-66
2021/08/12 10:58:39;;;;;;;7.25;6.65;;;30.30;99.90;;;;;;5014443;28;20254;-64
2021/08/12 11:01:07;;;;;;;6.63;6.00;;;30.10;99.90;;;;;;5013992;28;20204;-65
2021/08/12 11:03:33;;;;;;;6.50;5.65;;;29.80;99.90;;;;;;5014281;28;20191;-65
2021/08/12 11:06:12;;;;;;;5.97;5.57;;;29.70;99.90;;;;;;5014122;28;20687;-65
2021/08/12 11:08:50;;;;;;;6.60;5.57;;;29.70;99.90;;;;;;5014289;28;20247;-66
2021/08/12 11:11:28;;;;;;;6.18;5.70;;;29.50;99.90;;;;;;5013661;28;20180;-66
2021/08/12 11:13:56;;;;;;;6.00;5.40;;;29.70;99.90;;;;;;5013348;28;20612;-67
2021/08/12 11:16:23;;;;;;;7.35;5.60;;;29.30;99.90;;;;;;5013924;28;20192;-65
2021/08/12 11:18:52;;;;;;;6.65;6.05;;;29.20;99.90;;;;;;5013724;28;20183;-66
2021/08/12 11:21:34;;;;;;;6.40;5.90;;;29.10;99.90;;;;;;5011423;28;20187;-66
2021/08/12 11:24:11;;;;;;;6.72;6.13;;;29.10;99.90;;;;;;5014093;28;20188;-67
2021/08/12 11:26:46;;;;;;;5.70;5.20;;;29.20;99.90;;;;;;5013745;28;20178;-66
2021/08/12 11:29:25;;;;;;;6.22;5.78;;;29.40;99.90;;;;;;5010329;28;20258;-67
2021/08/12 11:31:54;;;;;;;5.50;5.10;;;29.60;99.90;;;;;;5009462;28;20168;-66
2021/08/12 11:34:25;;;;;;;5.90;5.40;;;29.60;99.90;;;;;;5004618;28;20744;-65
2021/08/12 11:37:11;;;;;;;6.20;5.55;;;30.00;99.90;;;;;;5012670;28;20204;-65
2021/08/12 11:39:58;;;;;;;6.60;6.10;;;30.60;99.90;;;;;;5012943;28;20173;-67
2021/08/12 11:42:37;;;;;;;5.78;5.28;;;31.10;99.90;;;;;;5011674;28;20191;-66
2021/08/12 11:45:10;;;;;;;5.43;5.03;;;31.50;99.90;;;;;;5011759;28;20223;-66
2021/08/12 11:47:37;;;;;;;5.80;5.30;;;31.70;99.90;;;;;;5013241;28;20184;-66
2021/08/12 11:50:08;;;;;;;6.00;5.55;;;31.30;99.90;;;;;;5013101;28;20234;-65
2021/08/12 11:52:36;;;;;;;5.30;4.90;;;31.20;99.90;;;;;;5012610;28;20566;-65
2021/08/12 11:55:11;;;;;;;5.32;4.93;;;31.50;99.90;;;;;;5013258;28;20207;-66
2021/08/12 11:57:57;;;;;;;5.55;5.15;;;31.90;99.90;;;;;;5012998;28;20218;-66
2021/08/12 12:00:33;;;;;;;6.15;5.65;;;32.00;99.90;;;;;;5007759;28;20218;-65
2021/08/12 12:03:03;;;;;;;7.05;6.45;;;32.20;99.90;;;;;;5013294;28;20230;-66
2021/08/12 12:05:30;;;;;;;5.93;5.40;;;32.30;99.90;;;;;;4993328;28;20306;-66
2021/08/12 12:08:08;;;;;;;5.93;5.43;;;32.80;99.90;;;;;;4993706;28;20176;-66
2021/08/12 12:10:36;;;;;;;6.93;6.43;;;33.00;99.90;;;;;;5011648;28;20176;-65
2021/08/12 12:13:14;;;;;;;6.15;5.65;;;33.20;99.90;;;;;;5013072;28;20172;-66
2021/08/12 12:16:00;;;;;;;6.28;5.75;;;33.20;99.90;;;;;;5010234;28;20215;-65
2021/08/12 12:18:34;;;;;;;7.88;5.97;;;33.20;99.90;;;;;;4994023;28;20197;-65
2021/08/12 12:21:07;;;;;;;5.57;5.05;;;33.30;99.90;;;;;;5012547;28;20512;-68
2021/08/12 12:23:34;;;;;;;5.63;5.20;;;33.50;99.90;;;;;;5009174;28;20246;-67
2021/08/12 12:25:59;;;;;;;5.82;5.35;;;33.60;99.90;;;;;;5011496;28;20535;-68
2021/08/12 12:28:25;;;;;;;6.28;5.88;;;33.60;99.90;;;;;;5010491;28;20184;-66
2021/08/12 12:30:51;;;;;;;6.57;5.95;;;33.20;99.90;;;;;;5012137;28;20704;-67
2021/08/12 12:33:18;;;;;;;6.25;5.75;;;32.90;99.90;;;;;;5010399;28;20295;-66
2021/08/12 12:35:46;;;;;;;5.70;5.20;;;33.10;99.90;;;;;;5012182;28;20212;-66